Time;durP1;ratioP1;P1;durP2;ratioP2;P2;SDS_P1;SDS_P2;PMS_P1;PMS_P2;Temp;Humidity;BMP_temperature;BMP_pressure;BME280_temperature;BME280_humidity;BME280_pressure;Samples;Min_cycle;Max_cycle;Signal;HPM_P1;HPM_P2
2023/09/04 00:02:13;;;;;;;4.43;4.13;;;14.60;99.90;;;;;;5010381;28;21089;-65
2023/09/04 00:04:40;;;;;;;4.70;4.40;;;14.60;99.90;;;;;;5010393;28;20462;-65
2023/09/04 00:07:08;;;;;;;5.30;4.90;;;14.50;99.90;;;;;;5009777;28;20973;-65
2023/09/04 00:09:35;;;;;;;5.07;4.70;;;14.50;99.90;;;;;;5009764;28;20483;-65
2023/09/04 00:12:02;;;;;;;5.50;4.97;;;14.50;99.90;;;;;;5010252;28;20753;-65
2023/09/04 00:14:29;;;;;;;5.10;4.27;;;14.50;99.90;;;;;;5010231;28;20513;-65
2023/09/04 00:16:55;;;;;;;4.63;4.27;;;14.40;99.90;;;;;;5009098;28;20973;-65
2023/09/04 00:19:22;;;;;;;4.17;3.77;;;14.40;99.90;;;;;;5009557;28;21009;-65
2023/09/04 00:21:49;;;;;;;5.53;4.57;;;14.40;99.90;;;;;;5009363;28;20460;-65
2023/09/04 00:24:20;;;;;;;5.20;4.60;;;14.40;99.90;;;;;;5009620;28;20458;-65
2023/09/04 00:26:47;;;;;;;5.03;4.20;;;14.30;99.90;;;;;;5009063;28;20508;-65
2023/09/04 00:29:14;;;;;;;5.97;4.03;;;14.30;99.90;;;;;;5009783;28;20995;-65
2023/09/04 00:31:40;;;;;;;4.13;3.90;;;14.30;99.90;;;;;;5009973;28;20454;-65
2023/09/04 00:34:07;;;;;;;6.30;5.73;;;14.30;99.90;;;;;;5008283;28;20444;-65
2023/09/04 00:36:34;;;;;;;4.23;3.83;;;14.20;99.90;;;;;;5009187;28;20456;-65
2023/09/04 00:39:01;;;;;;;4.33;4.13;;;14.20;99.90;;;;;;5009477;28;20995;-65
2023/09/04 00:41:29;;;;;;;6.00;4.70;;;14.20;99.90;;;;;;5009721;28;20460;-65
2023/09/04 00:43:56;;;;;;;4.80;4.30;;;14.20;99.90;;;;;;5009175;28;20493;-65
2023/09/04 00:46:23;;;;;;;8.00;5.83;;;14.10;99.90;;;;;;5008547;28;20486;-65
2023/09/04 00:48:50;;;;;;;4.73;4.33;;;14.10;99.90;;;;;;5009206;28;20476;-65
2023/09/04 00:51:18;;;;;;;8.47;5.33;;;14.10;99.90;;;;;;5009512;28;20538;-65
2023/09/04 00:53:45;;;;;;;4.80;4.40;;;14.10;99.90;;;;;;5009620;28;20541;-65
2023/09/04 00:56:14;;;;;;;5.53;4.47;;;14.10;99.90;;;;;;5008940;28;20450;-65
2023/09/04 00:58:42;;;;;;;4.90;4.50;;;14.00;99.90;;;;;;5009270;28;20560;-65
2023/09/04 01:01:09;;;;;;;5.20;4.73;;;14.00;99.90;;;;;;5009227;28;20462;-65
2023/09/04 01:03:36;;;;;;;5.17;4.77;;;13.90;99.90;;;;;;5009413;28;20495;-65
2023/09/04 01:06:03;;;;;;;5.30;4.90;;;13.90;99.90;;;;;;5008713;28;20450;-65
2023/09/04 01:08:30;;;;;;;5.20;4.80;;;13.90;99.90;;;;;;5009102;28;20832;-65
2023/09/04 01:11:09;;;;;;;5.10;4.70;;;13.90;99.90;;;;;;5009115;28;20544;-65
2023/09/04 01:13:44;;;;;;;4.80;4.40;;;13.80;99.90;;;;;;5008986;28;20442;-65
2023/09/04 01:16:12;;;;;;;6.40;4.63;;;13.80;99.90;;;;;;5008370;28;20460;-64
2023/09/04 01:18:40;;;;;;;5.20;4.80;;;13.80;99.90;;;;;;5009145;28;20584;-65
2023/09/04 01:21:08;;;;;;;4.77;4.47;;;13.80;99.90;;;;;;5009441;28;20544;-65
2023/09/04 01:23:35;;;;;;;4.90;4.50;;;13.70;99.90;;;;;;5009371;28;20916;-64
2023/09/04 01:26:12;;;;;;;4.90;4.60;;;13.70;99.90;;;;;;5011913;28;20465;-65
2023/09/04 01:28:48;;;;;;;5.30;5.00;;;13.70;99.90;;;;;;5012980;28;20539;-65
2023/09/04 01:31:21;;;;;;;5.10;4.80;;;13.70;99.90;;;;;;5012890;28;20455;-65
2023/09/04 01:33:52;;;;;;;6.37;5.30;;;13.60;99.90;;;;;;5011192;28;20449;-65
2023/09/04 01:36:23;;;;;;;4.50;4.10;;;13.60;99.90;;;;;;5011692;28;20529;-65
2023/09/04 01:38:51;;;;;;;4.73;4.33;;;13.60;99.90;;;;;;5012725;28;20555;-65
2023/09/04 01:41:18;;;;;;;5.40;4.93;;;13.60;99.90;;;;;;5012754;28;20461;-65
2023/09/04 01:43:45;;;;;;;4.77;4.47;;;13.60;99.90;;;;;;5012417;28;20591;-65
2023/09/04 01:46:12;;;;;;;5.00;4.60;;;13.60;99.90;;;;;;5012218;28;20453;-65
2023/09/04 01:48:38;;;;;;;5.67;5.17;;;13.50;99.90;;;;;;5012739;28;20466;-65
2023/09/04 01:51:05;;;;;;;4.93;4.53;;;13.50;99.90;;;;;;5012737;28;20454;-65
2023/09/04 01:53:33;;;;;;;5.23;4.83;;;13.50;99.90;;;;;;5013138;28;20792;-65
2023/09/04 01:56:00;;;;;;;5.90;5.40;;;13.50;99.90;;;;;;5011555;28;20969;-65
2023/09/04 01:58:28;;;;;;;4.27;4.00;;;13.50;99.90;;;;;;5012211;28;20478;-65
2023/09/04 02:00:55;;;;;;;4.80;4.50;;;13.50;99.90;;;;;;5012233;28;20467;-65
2023/09/04 02:03:21;;;;;;;5.40;4.83;;;13.50;99.90;;;;;;5012308;28;20917;-65
2023/09/04 02:05:48;;;;;;;5.47;5.07;;;13.40;99.90;;;;;;5012096;28;20463;-65
2023/09/04 02:08:15;;;;;;;7.67;6.13;;;13.40;99.90;;;;;;5036384;22;20482;-64
2023/09/04 02:10:43;;;;;;;5.60;4.77;;;13.40;99.90;;;;;;5031073;28;20970;-64
2023/09/04 02:13:10;;;;;;;5.50;4.80;;;13.40;99.90;;;;;;5030925;28;20942;-64
2023/09/04 02:15:38;;;;;;;5.07;4.77;;;13.40;99.90;;;;;;5031099;28;20548;-64
2023/09/04 02:18:05;;;;;;;5.70;5.20;;;13.40;99.90;;;;;;5030407;28;20452;-64
2023/09/04 02:20:32;;;;;;;7.00;6.40;;;13.30;99.90;;;;;;5031064;28;20565;-64
2023/09/04 02:22:59;;;;;;;5.43;5.03;;;13.30;99.90;;;;;;5031090;28;20493;-64
2023/09/04 02:25:26;;;;;;;4.77;4.20;;;13.30;99.90;;;;;;5030992;28;20830;-64
2023/09/04 02:27:55;;;;;;;5.07;4.57;;;13.30;99.90;;;;;;5030262;28;20883;-64
2023/09/04 02:30:22;;;;;;;5.80;5.33;;;13.30;99.90;;;;;;5030867;28;20873;-64
2023/09/04 02:32:48;;;;;;;4.93;4.53;;;13.30;99.90;;;;;;5028783;28;20934;-64
2023/09/04 02:35:15;;;;;;;7.93;5.73;;;13.20;99.90;;;;;;5030386;28;20456;-64
2023/09/04 02:37:44;;;;;;;4.60;4.20;;;13.20;99.90;;;;;;5029022;28;20488;-64
2023/09/04 02:40:12;;;;;;;6.10;4.70;;;13.20;99.90;;;;;;5030548;28;20480;-64
2023/09/04 02:42:39;;;;;;;8.27;5.30;;;13.20;99.90;;;;;;5030402;28;20457;-64
2023/09/04 02:45:09;;;;;;;5.10;4.60;;;13.20;99.90;;;;;;5030653;28;20453;-64
2023/09/04 02:47:37;;;;;;;5.80;5.20;;;13.20;99.90;;;;;;5029955;28;20540;-64
2023/09/04 02:50:05;;;;;;;4.97;4.67;;;13.20;99.90;;;;;;5030322;28;20563;-64
2023/09/04 02:52:32;;;;;;;5.40;5.00;;;13.10;99.90;;;;;;5030294;28;20450;-64
2023/09/04 02:54:59;;;;;;;4.90;4.50;;;13.10;99.90;;;;;;5030307;28;21053;-64
2023/09/04 02:57:26;;;;;;;5.17;4.87;;;13.10;99.90;;;;;;5029787;28;20548;-64
2023/09/04 02:59:53;;;;;;;4.97;4.50;;;13.10;99.90;;;;;;5030299;28;20476;-64
2023/09/04 03:02:22;;;;;;;5.47;5.10;;;13.10;99.90;;;;;;5030066;28;20463;-64
2023/09/04 03:04:53;;;;;;;5.67;5.23;;;13.10;99.90;;;;;;5029950;28;20490;-64
2023/09/04 03:07:20;;;;;;;5.10;4.60;;;13.10;99.90;;;;;;5029461;28;20456;-64
2023/09/04 03:09:47;;;;;;;4.60;4.30;;;13.10;99.90;;;;;;5029802;28;20567;-64
2023/09/04 03:12:14;;;;;;;5.70;5.20;;;13.00;99.90;;;;;;5026879;28;20544;-64
2023/09/04 03:14:41;;;;;;;6.07;5.50;;;13.00;99.90;;;;;;5030518;28;20911;-64
2023/09/04 03:17:08;;;;;;;5.00;4.60;;;13.00;99.90;;;;;;5029279;28;20449;-64
2023/09/04 03:19:36;;;;;;;7.97;6.13;;;13.00;99.90;;;;;;5029997;28;20473;-64
2023/09/04 03:22:03;;;;;;;4.47;4.13;;;13.00;99.90;;;;;;5030194;28;20808;-64
2023/09/04 03:24:29;;;;;;;5.87;5.30;;;13.00;99.90;;;;;;5029461;28;20499;-64
2023/09/04 03:26:56;;;;;;;5.03;4.53;;;13.00;99.90;;;;;;5029044;28;20453;-64
2023/09/04 03:29:24;;;;;;;8.33;5.10;;;13.00;99.90;;;;;;5029644;28;21065;-64
2023/09/04 03:31:51;;;;;;;5.67;5.17;;;12.90;99.90;;;;;;5029556;28;20486;-64
2023/09/04 03:34:18;;;;;;;5.30;4.90;;;12.90;99.90;;;;;;5027676;28;20455;-64
2023/09/04 03:36:47;;;;;;;6.70;5.20;;;12.90;99.90;;;;;;5029146;28;20452;-64
2023/09/04 03:39:13;;;;;;;5.87;5.37;;;12.90;99.90;;;;;;5029674;28;20468;-64
2023/09/04 03:41:40;;;;;;;7.47;6.20;;;12.90;99.90;;;;;;5029746;28;20515;-64
2023/09/04 03:44:07;;;;;;;6.57;5.97;;;12.90;99.90;;;;;;5029205;28;21027;-64
2023/09/04 03:46:34;;;;;;;5.53;5.03;;;12.80;99.90;;;;;;5028470;28;20510;-64
2023/09/04 03:49:01;;;;;;;5.50;5.00;;;12.80;99.90;;;;;;5028335;28;20469;-64
2023/09/04 03:51:28;;;;;;;5.23;4.93;;;12.80;99.90;;;;;;5029374;28;21038;-64
2023/09/04 03:54:01;;;;;;;9.37;5.20;;;12.80;99.90;;;;;;5028728;28;20447;-64
2023/09/04 03:56:28;;;;;;;5.43;5.03;;;12.80;99.90;;;;;;5028392;28;20445;-64
2023/09/04 03:58:55;;;;;;;5.20;4.90;;;12.80;99.90;;;;;;5029112;28;20843;-64
2023/09/04 04:01:23;;;;;;;5.60;5.17;;;12.80;99.90;;;;;;5029024;28;20914;-64
2023/09/04 04:03:50;;;;;;;5.90;5.40;;;12.70;99.90;;;;;;5029451;28;20492;-64
2023/09/04 04:06:17;;;;;;;5.67;5.27;;;12.80;99.90;;;;;;5028382;28;20539;-64
2023/09/04 04:08:45;;;;;;;5.83;5.33;;;12.70;99.90;;;;;;5028918;28;21052;-64
2023/09/04 04:11:13;;;;;;;5.70;5.00;;;12.80;99.90;;;;;;5028943;28;20823;-64
2023/09/04 04:13:40;;;;;;;6.63;6.00;;;12.80;99.90;;;;;;5028746;28;20484;-64
2023/09/04 04:16:07;;;;;;;5.23;4.77;;;12.80;99.90;;;;;;5028142;28;20479;-64
2023/09/04 04:18:34;;;;;;;5.93;5.43;;;12.80;99.90;;;;;;5028767;28;20464;-64
2023/09/04 04:21:01;;;;;;;5.80;5.30;;;12.80;99.90;;;;;;5028637;28;20466;-64
2023/09/04 04:23:28;;;;;;;6.27;5.10;;;12.70;99.90;;;;;;5028601;28;20489;-64
2023/09/04 04:25:54;;;;;;;6.53;6.00;;;12.70;99.90;;;;;;5028182;28;20507;-64
2023/09/04 04:28:23;;;;;;;6.03;5.40;;;12.70;99.90;;;;;;5028507;28;20548;-64
2023/09/04 04:30:50;;;;;;;5.53;5.10;;;12.70;99.90;;;;;;5028893;28;20540;-64
2023/09/04 04:33:17;;;;;;;5.83;5.20;;;12.70;99.90;;;;;;5026629;28;20452;-64
2023/09/04 04:35:44;;;;;;;7.10;5.00;;;12.70;99.90;;;;;;5028412;28;20456;-64
2023/09/04 04:38:11;;;;;;;6.47;5.53;;;12.60;99.90;;;;;;5027762;28;20502;-64
2023/09/04 04:40:38;;;;;;;6.33;5.70;;;12.60;99.90;;;;;;5028272;28;20979;-64
2023/09/04 04:43:06;;;;;;;6.13;5.63;;;12.60;99.90;;;;;;5028268;28;20471;-64
2023/09/04 04:45:34;;;;;;;6.30;5.70;;;12.70;99.90;;;;;;5028287;28;20452;-64
2023/09/04 04:48:03;;;;;;;5.90;5.40;;;12.70;99.90;;;;;;5027732;28;20452;-64
2023/09/04 04:50:30;;;;;;;7.40;5.00;;;12.70;99.90;;;;;;5028366;28;20460;-64
2023/09/04 04:52:57;;;;;;;9.20;6.57;;;12.70;99.90;;;;;;5028146;28;20452;-64
2023/09/04 04:55:24;;;;;;;6.50;5.37;;;12.70;99.90;;;;;;5028826;28;20447;-65
2023/09/04 04:57:51;;;;;;;6.37;5.87;;;12.60;99.90;;;;;;5027697;28;20458;-64
2023/09/04 05:00:18;;;;;;;5.50;5.10;;;12.60;99.90;;;;;;5029774;28;20496;-64
2023/09/04 05:02:47;;;;;;;7.10;5.40;;;12.60;99.90;;;;;;5032782;28;20988;-64
2023/09/04 05:05:13;;;;;;;6.80;6.10;;;12.70;99.90;;;;;;5032114;28;20571;-64
2023/09/04 05:07:41;;;;;;;6.43;5.80;;;12.70;99.90;;;;;;5031824;28;20456;-64
2023/09/04 05:10:09;;;;;;;5.90;5.37;;;12.70;99.90;;;;;;5031969;28;20482;-64
2023/09/04 05:12:36;;;;;;;5.50;5.00;;;12.70;99.90;;;;;;5032515;28;20453;-64
2023/09/04 05:15:05;;;;;;;6.00;5.50;;;12.70;99.90;;;;;;5032452;28;20448;-64
2023/09/04 05:17:32;;;;;;;5.93;5.53;;;12.70;99.90;;;;;;5031576;28;20453;-65
2023/09/04 05:20:00;;;;;;;5.87;5.47;;;12.70;99.90;;;;;;5031906;28;20475;-64
2023/09/04 05:22:27;;;;;;;5.57;5.10;;;12.70;99.90;;;;;;5032284;28;20831;-64
2023/09/04 05:24:53;;;;;;;5.60;5.10;;;12.70;99.90;;;;;;5032387;28;20495;-64
2023/09/04 05:27:20;;;;;;;5.50;4.87;;;12.70;99.90;;;;;;5031412;28;20455;-64
2023/09/04 05:29:47;;;;;;;6.10;5.63;;;12.70;99.90;;;;;;5031848;28;20485;-64
2023/09/04 05:32:14;;;;;;;6.20;5.40;;;12.70;99.90;;;;;;5030323;28;20557;-65
2023/09/04 05:34:41;;;;;;;6.57;5.53;;;12.70;99.90;;;;;;5031721;28;20452;-65
2023/09/04 05:37:09;;;;;;;6.07;5.57;;;12.80;99.90;;;;;;5031095;28;20829;-64
2023/09/04 05:39:36;;;;;;;5.77;5.20;;;12.80;99.90;;;;;;5031440;28;20472;-64
2023/09/04 05:42:03;;;;;;;6.57;5.97;;;12.80;99.90;;;;;;5031739;28;20903;-64
2023/09/04 05:44:30;;;;;;;7.50;6.90;;;12.80;99.90;;;;;;5031387;28;20486;-64
2023/09/04 05:46:57;;;;;;;6.30;5.80;;;12.80;99.90;;;;;;5031246;28;20591;-65
2023/09/04 05:49:24;;;;;;;6.07;5.57;;;12.90;99.90;;;;;;5031572;28;20887;-64
2023/09/04 05:51:51;;;;;;;5.63;5.23;;;12.90;99.90;;;;;;5031506;28;20456;-64
2023/09/04 05:54:19;;;;;;;5.97;5.47;;;12.90;99.90;;;;;;5031430;28;20890;-64
2023/09/04 05:56:46;;;;;;;5.73;5.30;;;12.90;99.90;;;;;;5030714;28;20918;-64
2023/09/04 05:59:14;;;;;;;6.23;5.77;;;13.00;99.90;;;;;;5031097;28;20495;-64
2023/09/04 06:01:41;;;;;;;6.10;5.50;;;13.00;99.90;;;;;;5031455;28;20452;-64
2023/09/04 06:04:08;;;;;;;7.37;6.00;;;13.00;99.90;;;;;;5031400;28;20485;-64
2023/09/04 06:06:37;;;;;;;6.80;5.93;;;13.10;99.90;;;;;;5030474;28;20459;-64
2023/09/04 06:09:04;;;;;;;5.10;4.70;;;13.10;99.90;;;;;;5030926;28;20491;-65
2023/09/04 06:11:32;;;;;;;7.13;6.60;;;13.10;99.90;;;;;;5030857;28;20507;-64
2023/09/04 06:13:59;;;;;;;5.87;5.37;;;13.20;99.90;;;;;;5031192;28;20441;-64
2023/09/04 06:16:26;;;;;;;6.33;5.73;;;13.20;99.90;;;;;;5030376;28;20456;-64
2023/09/04 06:18:52;;;;;;;6.77;6.20;;;13.30;99.90;;;;;;5031038;28;20468;-64
2023/09/04 06:21:19;;;;;;;6.60;6.13;;;13.30;99.90;;;;;;5030927;28;20453;-64
2023/09/04 06:23:46;;;;;;;6.07;5.57;;;13.30;99.90;;;;;;5030687;28;20842;-64
2023/09/04 06:26:14;;;;;;;6.77;6.33;;;13.40;99.90;;;;;;5030085;28;20456;-65
2023/09/04 06:28:42;;;;;;;6.23;5.73;;;13.40;99.90;;;;;;5030676;28;20505;-65
2023/09/04 06:31:09;;;;;;;7.00;6.40;;;13.50;99.90;;;;;;5031023;28;20455;-65
2023/09/04 06:33:37;;;;;;;6.67;6.10;;;13.60;99.90;;;;;;5018029;28;20956;-65
2023/09/04 06:36:05;;;;;;;6.53;6.00;;;13.70;99.90;;;;;;5009983;28;20906;-65
2023/09/04 06:38:32;;;;;;;7.67;6.97;;;13.80;99.90;;;;;;5010006;28;20473;-65
2023/09/04 06:40:58;;;;;;;7.53;6.67;;;14.00;99.90;;;;;;5023062;28;20868;-65
2023/09/04 06:43:25;;;;;;;5.87;5.40;;;14.20;99.90;;;;;;5030032;28;20468;-65
2023/09/04 06:45:54;;;;;;;6.40;5.80;;;14.50;99.90;;;;;;5029195;28;20495;-65
2023/09/04 06:48:22;;;;;;;7.27;6.17;;;14.70;99.90;;;;;;5029459;28;20469;-65
2023/09/04 06:50:50;;;;;;;7.27;6.57;;;14.90;99.90;;;;;;5029625;28;20518;-65
2023/09/04 06:53:17;;;;;;;6.10;5.60;;;15.10;99.90;;;;;;5029744;28;20458;-65
2023/09/04 06:55:44;;;;;;;5.60;5.20;;;15.30;99.90;;;;;;5029759;28;20535;-65
2023/09/04 06:58:11;;;;;;;5.90;5.40;;;15.60;99.90;;;;;;5029078;28;20458;-65
2023/09/04 07:00:38;;;;;;;8.30;5.53;;;15.70;99.90;;;;;;5029282;28;20457;-65
2023/09/04 07:03:06;;;;;;;4.70;4.40;;;16.00;99.90;;;;;;5028880;28;20454;-65
2023/09/04 07:05:33;;;;;;;6.40;5.90;;;16.20;99.90;;;;;;5028915;28;20573;-65
2023/09/04 07:08:00;;;;;;;6.70;5.30;;;16.40;99.90;;;;;;5027433;28;20463;-65
2023/09/04 07:10:27;;;;;;;5.40;5.00;;;16.60;99.90;;;;;;5029141;28;20488;-65
2023/09/04 07:12:54;;;;;;;5.33;4.83;;;16.80;99.90;;;;;;5029316;28;21047;-65
2023/09/04 07:15:21;;;;;;;6.13;5.63;;;16.90;99.90;;;;;;5028488;28;21030;-65
2023/09/04 07:17:49;;;;;;;5.20;4.80;;;17.10;99.90;;;;;;5027581;28;20830;-65
2023/09/04 07:20:17;;;;;;;6.40;3.80;;;17.20;99.90;;;;;;5028222;28;20472;-65
2023/09/04 07:22:44;;;;;;;6.03;5.50;;;17.30;99.90;;;;;;5027755;28;20956;-65
2023/09/04 07:25:11;;;;;;;5.63;5.23;;;17.40;99.90;;;;;;5028698;28;20506;-65
2023/09/04 07:27:38;;;;;;;10.40;5.83;;;17.50;99.90;;;;;;5028307;28;20810;-65
2023/09/04 07:30:06;;;;;;;6.17;5.60;;;17.60;99.90;;;;;;5029161;28;20583;-65
2023/09/04 07:32:32;;;;;;;6.40;4.87;;;17.70;99.90;;;;;;5026419;28;21018;-65
2023/09/04 07:34:59;;;;;;;4.83;4.53;;;17.80;99.90;;;;;;5028042;28;20818;-65
2023/09/04 07:37:27;;;;;;;5.10;4.70;;;17.90;99.90;;;;;;5027641;28;20822;-65
2023/09/04 07:39:54;;;;;;;6.10;5.43;;;18.00;99.90;;;;;;5028432;28;20785;-64
2023/09/04 07:42:22;;;;;;;5.60;5.10;;;18.10;99.90;;;;;;5029067;28;20532;-65
2023/09/04 07:44:49;;;;;;;7.10;5.80;;;18.20;99.90;;;;;;5028420;28;20570;-64
2023/09/04 07:47:16;;;;;;;5.67;5.30;;;18.30;99.90;;;;;;5028167;28;20569;-65
2023/09/04 07:49:43;;;;;;;5.37;4.97;;;18.30;99.90;;;;;;5029077;28;20526;-65
2023/09/04 07:52:10;;;;;;;5.40;4.67;;;18.40;99.90;;;;;;5027859;28;20482;-64
2023/09/04 07:54:38;;;;;;;5.53;5.23;;;18.40;99.90;;;;;;5027812;28;20448;-65
2023/09/04 07:57:06;;;;;;;5.07;4.67;;;18.50;99.90;;;;;;5028155;28;20449;-65
2023/09/04 07:59:33;;;;;;;5.50;5.00;;;18.50;99.90;;;;;;5027904;28;20542;-65
2023/09/04 08:02:00;;;;;;;5.90;5.50;;;18.60;99.90;;;;;;5028539;28;20455;-65
2023/09/04 08:04:27;;;;;;;5.40;5.00;;;18.60;99.90;;;;;;5028369;28;20467;-64
2023/09/04 08:06:56;;;;;;;5.27;4.77;;;18.70;99.90;;;;;;5028319;28;20449;-65
2023/09/04 08:09:22;;;;;;;5.20;4.80;;;18.70;99.90;;;;;;5028365;28;21020;-65
2023/09/04 08:11:51;;;;;;;5.17;4.47;;;18.70;99.90;;;;;;5050631;22;20584;-65
2023/09/04 08:14:18;;;;;;;4.83;4.43;;;18.80;99.90;;;;;;5028585;28;20532;-65
2023/09/04 08:16:44;;;;;;;5.80;5.30;;;18.90;99.90;;;;;;5027258;28;20448;-66
2023/09/04 08:19:11;;;;;;;4.77;4.37;;;19.00;99.90;;;;;;5029015;28;20462;-65
2023/09/04 08:21:38;;;;;;;6.03;5.53;;;19.00;99.90;;;;;;5028859;28;20489;-65
2023/09/04 08:24:06;;;;;;;6.07;5.60;;;19.10;99.90;;;;;;5028293;28;20536;-65
2023/09/04 08:26:33;;;;;;;5.57;5.07;;;19.20;99.90;;;;;;5026395;28;20510;-65
2023/09/04 08:29:01;;;;;;;4.77;4.47;;;19.20;99.90;;;;;;5026601;28;20543;-65
2023/09/04 08:31:27;;;;;;;7.20;5.37;;;19.30;99.90;;;;;;5028235;28;20481;-65
2023/09/04 08:33:54;;;;;;;4.73;4.43;;;19.40;99.90;;;;;;5026406;28;20449;-65
2023/09/04 08:36:21;;;;;;;5.53;4.93;;;19.40;99.90;;;;;;5026967;28;20821;-65
2023/09/04 08:38:48;;;;;;;4.90;4.43;;;19.50;99.90;;;;;;5028245;28;20453;-65
2023/09/04 08:41:20;;;;;;;4.90;4.50;;;19.60;99.90;;;;;;5027848;28;21045;-65
2023/09/04 08:43:49;;;;;;;4.90;4.60;;;19.70;99.90;;;;;;5028036;28;20531;-65
2023/09/04 08:46:19;;;;;;;5.17;4.87;;;19.80;99.90;;;;;;5027202;28;20532;-65
2023/09/04 08:48:47;;;;;;;4.93;4.63;;;19.90;99.90;;;;;;5027575;28;20833;-65
2023/09/04 08:51:16;;;;;;;4.83;4.47;;;20.00;99.90;;;;;;5028043;28;20469;-65
2023/09/04 08:53:43;;;;;;;5.37;4.97;;;20.10;99.90;;;;;;5012519;28;20451;-65
2023/09/04 08:56:10;;;;;;;5.00;4.50;;;20.20;99.90;;;;;;5026792;28;20437;-65
2023/09/04 08:58:37;;;;;;;4.10;3.90;;;20.30;99.90;;;;;;5027847;28;20529;-65
2023/09/04 09:01:04;;;;;;;5.10;4.70;;;20.30;99.90;;;;;;5027710;28;21004;-65
2023/09/04 09:03:33;;;;;;;4.87;4.47;;;20.40;99.90;;;;;;5027759;28;20499;-65
2023/09/04 09:06:01;;;;;;;5.40;4.97;;;20.50;99.90;;;;;;5026889;28;20486;-65
2023/09/04 09:08:28;;;;;;;5.10;4.67;;;20.60;99.90;;;;;;5027490;28;20971;-65
2023/09/04 09:10:55;;;;;;;5.23;4.80;;;20.70;99.90;;;;;;5027836;28;20477;-65
2023/09/04 09:13:22;;;;;;;5.03;4.63;;;20.70;99.90;;;;;;5027723;28;20537;-65
2023/09/04 09:15:49;;;;;;;4.30;4.00;;;20.80;99.90;;;;;;5027305;28;21277;-65
2023/09/04 09:18:39;;;;;;;4.57;4.27;;;20.90;99.90;;;;;;5027398;28;20449;-65
2023/09/04 09:21:26;;;;;;;4.33;3.97;;;21.00;99.90;;;;;;5027556;28;20458;-66
2023/09/04 09:24:11;;;;;;;5.17;4.70;;;21.10;99.90;;;;;;5013450;28;20530;-65
2023/09/04 09:26:40;;;;;;;5.70;4.10;;;21.20;99.90;;;;;;5026922;28;20512;-65
2023/09/04 09:29:08;;;;;;;4.47;4.03;;;21.20;99.90;;;;;;5027413;28;20450;-65
2023/09/04 09:31:36;;;;;;;3.67;3.40;;;21.30;99.90;;;;;;5027953;28;20553;-65
2023/09/04 09:34:04;;;;;;;6.73;3.70;;;21.30;99.90;;;;;;5025675;28;20542;-65
2023/09/04 09:36:31;;;;;;;5.43;4.93;;;21.30;99.90;;;;;;5026731;28;20538;-65
2023/09/04 09:38:58;;;;;;;4.90;3.90;;;21.40;99.90;;;;;;5027322;28;20458;-65
2023/09/04 09:41:27;;;;;;;5.43;4.13;;;21.40;99.90;;;;;;5027505;28;20493;-65
2023/09/04 09:43:53;;;;;;;4.47;4.03;;;21.40;99.90;;;;;;5027488;28;20451;-65
2023/09/04 09:46:21;;;;;;;5.37;3.90;;;21.50;99.90;;;;;;5028546;28;21037;-65
2023/09/04 09:48:48;;;;;;;3.80;3.50;;;21.60;99.90;;;;;;5030771;28;20451;-65
2023/09/04 09:51:17;;;;;;;4.50;4.00;;;21.60;99.90;;;;;;5031000;28;21035;-66
2023/09/04 09:53:46;;;;;;;5.90;4.73;;;21.70;99.90;;;;;;5031004;28;20447;-65
2023/09/04 09:56:13;;;;;;;3.53;3.20;;;21.70;99.90;;;;;;5030300;28;20435;-66
2023/09/04 09:58:42;;;;;;;3.40;3.10;;;21.80;99.90;;;;;;5031111;28;20452;-65
2023/09/04 10:01:09;;;;;;;3.30;3.10;;;21.80;99.90;;;;;;5031006;28;21006;-65
2023/09/04 10:03:37;;;;;;;3.93;3.33;;;21.90;99.90;;;;;;5030838;28;20834;-65
2023/09/04 10:06:06;;;;;;;3.70;3.40;;;22.00;99.90;;;;;;5029914;28;20526;-66
2023/09/04 10:08:38;;;;;;;4.10;3.30;;;22.10;99.90;;;;;;5030514;28;20983;-65
2023/09/04 10:11:08;;;;;;;4.60;3.60;;;22.10;99.30;;;;;;5030542;28;20495;-65
2023/09/04 10:13:39;;;;;;;2.93;2.73;;;22.30;99.90;;;;;;5030532;28;20466;-66
2023/09/04 10:16:10;;;;;;;3.20;3.00;;;22.30;99.30;;;;;;5029660;28;20443;-66
2023/09/04 10:18:39;;;;;;;3.30;3.10;;;22.40;99.40;;;;;;5030634;28;20450;-65
2023/09/04 10:21:09;;;;;;;3.50;3.30;;;22.50;98.80;;;;;;5030265;28;20469;-65
2023/09/04 10:23:44;;;;;;;3.07;2.87;;;22.50;99.30;;;;;;5030347;28;20444;-65
2023/09/04 10:26:19;;;;;;;3.53;3.20;;;22.60;98.60;;;;;;5029558;28;20491;-65
2023/09/04 10:28:52;;;;;;;3.43;3.20;;;22.60;98.90;;;;;;5030575;28;20479;-66
2023/09/04 10:31:21;;;;;;;3.83;3.00;;;22.70;97.40;;;;;;5030638;28;20466;-65
2023/09/04 10:33:49;;;;;;;3.10;2.90;;;22.80;98.50;;;;;;5028613;28;20526;-65
2023/09/04 10:36:16;;;;;;;3.30;3.10;;;22.90;98.20;;;;;;5029541;28;20449;-66
2023/09/04 10:38:44;;;;;;;3.30;3.10;;;22.90;97.50;;;;;;5030288;28;20824;-66
2023/09/04 10:41:14;;;;;;;3.30;3.10;;;22.90;97.80;;;;;;5030218;28;20841;-65
2023/09/04 10:43:41;;;;;;;4.63;3.13;;;23.00;96.80;;;;;;5013852;28;20534;-65
2023/09/04 10:46:09;;;;;;;3.57;3.37;;;23.10;96.30;;;;;;5029089;28;20826;-65
2023/09/04 10:48:43;;;;;;;3.57;3.33;;;23.20;97.40;;;;;;5029848;28;20459;-65
2023/09/04 10:51:33;;;;;;;2.60;2.50;;;23.30;97.10;;;;;;5029966;28;20484;-65
2023/09/04 10:54:03;;;;;;;3.20;3.00;;;23.30;96.20;;;;;;5016530;28;20445;-65
2023/09/04 10:56:52;;;;;;;5.13;3.43;;;23.40;95.30;;;;;;5028851;28;20536;-65
2023/09/04 10:59:19;;;;;;;2.60;2.50;;;23.40;95.90;;;;;;5029584;28;20532;-65
2023/09/04 11:01:46;;;;;;;3.40;3.20;;;23.50;95.70;;;;;;5030151;28;20465;-65
2023/09/04 11:04:30;;;;;;;2.70;2.50;;;23.50;94.90;;;;;;5029982;28;20452;-66
2023/09/04 11:07:31;;;;;;;2.67;2.57;;;23.60;95.40;;;;;;5028929;28;20874;-65
2023/09/04 11:10:23;;;;;;;2.90;2.70;;;23.60;94.50;;;;;;5015509;28;21133;-65
2023/09/04 11:12:50;;;;;;;2.97;2.77;;;23.60;94.10;;;;;;5018585;28;20450;-65
2023/09/04 11:15:17;;;;;;;4.03;2.80;;;23.70;94.20;;;;;;5029338;28;20445;-66
2023/09/04 11:17:46;;;;;;;3.13;2.43;;;23.80;94.10;;;;;;5028670;28;20445;-65
2023/09/04 11:20:17;;;;;;;4.10;3.50;;;23.90;94.30;;;;;;5028965;28;20973;-65
2023/09/04 11:22:48;;;;;;;4.23;3.13;;;23.90;94.40;;;;;;5029127;28;20441;-65
2023/09/04 11:25:17;;;;;;;2.70;2.60;;;23.90;94.00;;;;;;5028603;28;20457;-65
2023/09/04 11:27:44;;;;;;;3.13;2.93;;;23.90;92.80;;;;;;5028848;28;20441;-65
2023/09/04 11:30:12;;;;;;;3.70;3.40;;;24.00;93.80;;;;;;5029122;28;20477;-65
2023/09/04 11:32:40;;;;;;;2.27;2.17;;;24.10;92.80;;;;;;5027223;28;20572;-65
2023/09/04 11:35:11;;;;;;;2.60;2.50;;;24.20;92.40;;;;;;5028911;28;20533;-66
2023/09/04 11:37:38;;;;;;;3.30;3.00;;;24.30;91.80;;;;;;5028235;28;20934;-65
2023/09/04 11:40:07;;;;;;;2.97;2.77;;;24.30;93.00;;;;;;5029007;28;20482;-66
2023/09/04 11:42:36;;;;;;;2.73;2.63;;;24.40;93.10;;;;;;5028781;28;21238;-65
2023/09/04 11:45:04;;;;;;;3.33;3.13;;;24.50;91.10;;;;;;5028842;28;20567;-65
2023/09/04 11:47:32;;;;;;;2.47;2.27;;;24.60;92.30;;;;;;5028347;28;20531;-66
2023/09/04 11:49:59;;;;;;;4.00;2.97;;;24.70;91.40;;;;;;5029007;28;21119;-65
2023/09/04 11:52:28;;;;;;;2.80;2.60;;;24.80;90.50;;;;;;5028851;28;20546;-66
2023/09/04 11:54:55;;;;;;;3.00;2.67;;;24.80;89.10;;;;;;5028449;28;20451;-66
2023/09/04 11:57:22;;;;;;;2.43;2.33;;;24.90;91.40;;;;;;5027568;28;20443;-66
2023/09/04 11:59:50;;;;;;;2.97;2.77;;;25.00;90.70;;;;;;5028657;28;20822;-66
2023/09/04 12:02:18;;;;;;;2.57;2.47;;;25.10;90.40;;;;;;5028538;28;20466;-66
2023/09/04 12:04:46;;;;;;;2.57;2.47;;;25.20;90.10;;;;;;5028162;28;20458;-66
2023/09/04 12:07:16;;;;;;;3.30;3.10;;;25.30;89.40;;;;;;5027582;28;20498;-66
2023/09/04 12:09:43;;;;;;;2.90;2.70;;;25.30;90.30;;;;;;5011833;28;20451;-66
2023/09/04 12:12:09;;;;;;;3.17;2.97;;;25.40;90.00;;;;;;5028259;28;20899;-66
2023/09/04 12:14:43;;;;;;;3.03;2.83;;;25.50;89.80;;;;;;5028313;28;20452;-66
2023/09/04 12:17:12;;;;;;;2.70;2.50;;;25.70;87.40;;;;;;5027567;28;20448;-66
2023/09/04 12:19:39;;;;;;;3.30;3.00;;;25.80;88.20;;;;;;5028075;28;20509;-65
2023/09/04 12:22:13;;;;;;;3.30;3.10;;;25.90;86.90;;;;;;5027947;28;20508;-66
2023/09/04 12:24:40;;;;;;;3.47;3.27;;;26.00;87.80;;;;;;5027766;28;21022;-65
2023/09/04 12:27:07;;;;;;;3.20;2.73;;;26.10;86.70;;;;;;5026967;28;20576;-66
2023/09/04 12:29:35;;;;;;;2.90;2.70;;;26.20;87.30;;;;;;5027733;28;20450;-66
2023/09/04 12:32:03;;;;;;;4.37;3.20;;;26.40;87.00;;;;;;5027424;28;20468;-66
2023/09/04 12:34:32;;;;;;;2.80;2.60;;;26.60;84.90;;;;;;5026455;28;20856;-66
2023/09/04 12:36:59;;;;;;;2.57;2.37;;;26.70;87.40;;;;;;5027244;28;20894;-66
2023/09/04 12:39:26;;;;;;;5.03;2.57;;;26.90;83.90;;;;;;5027875;28;20450;-66
2023/09/04 12:41:56;;;;;;;2.73;2.63;;;27.00;81.00;;;;;;5027750;28;20553;-65
2023/09/04 12:44:22;;;;;;;3.00;2.70;;;27.10;85.70;;;;;;5027706;28;20463;-66
2023/09/04 12:46:49;;;;;;;2.70;2.60;;;27.30;82.70;;;;;;5026800;28;20482;-66
2023/09/04 12:49:16;;;;;;;3.07;2.87;;;27.40;82.50;;;;;;5027883;28;20452;-65
2023/09/04 12:51:45;;;;;;;3.00;2.80;;;27.50;81.00;;;;;;5027533;28;20471;-66
2023/09/04 12:54:11;;;;;;;3.83;2.60;;;27.70;76.90;;;;;;5027543;28;20443;-66